Adams Gardens, Texas
Current Conditions -  °F | °C
As of 11:52 AM on Saturday 20 Dec 2014 (Local Time) from KHRL Reporting Station
Overcast Overcast  
Wind Chill: 14°   Ceiling: 700
Heat Index: 14°   Visibility: 10mi
Dew Point: 12°   Wind: 13mph
Humidity: 89%   Direction: 340°NNW
Pressure: 30.19"   Gusts: NA
Location:  26.2089°N, 97.6849°W
Report Text: KHRL 201752Z 34011KT 10SM OVC007 14/12 A3019 RMK AO2 SLP221 T01390122 10144 20133 $
Loading
Personal Weather Stations






























Interactive Weather Map New forecast layout! Learn more

10-Day Weather Forecast

Advertisements
Track Severe Weather on mobile